sensor_id;sensor_type;location;lat;lon;timestamp;P1;durP1;ratioP1;P2;durP2;ratioP2
7239;SDS011;3661;53.288;10.458;2023-02-18T00:01:38;914.50;;;833.83;;
7239;SDS011;3661;53.288;10.458;2023-02-18T00:04:10;900.30;;;819.90;;
7239;SDS011;3661;53.288;10.458;2023-02-18T00:06:42;889.13;;;808.67;;
7239;SDS011;3661;53.288;10.458;2023-02-18T00:09:18;878.85;;;798.42;;
7239;SDS011;3661;53.288;10.458;2023-02-18T00:11:51;891.78;;;811.42;;
7239;SDS011;3661;53.288;10.458;2023-02-18T00:14:24;889.25;;;809.00;;
7239;SDS011;3661;53.288;10.458;2023-02-18T00:16:56;893.45;;;813.10;;
7239;SDS011;3661;53.288;10.458;2023-02-18T00:19:28;874.38;;;794.33;;
7239;SDS011;3661;53.288;10.458;2023-02-18T00:22:03;878.97;;;798.95;;
7239;SDS011;3661;53.288;10.458;2023-02-18T00:24:35;883.03;;;803.38;;
7239;SDS011;3661;53.288;10.458;2023-02-18T00:27:10;890.30;;;810.42;;
7239;SDS011;3661;53.288;10.458;2023-02-18T00:29:42;880.10;;;800.17;;
7239;SDS011;3661;53.288;10.458;2023-02-18T00:32:14;893.00;;;813.42;;
7239;SDS011;3661;53.288;10.458;2023-02-18T00:34:46;871.45;;;792.22;;
7239;SDS011;3661;53.288;10.458;2023-02-18T00:37:19;869.80;;;790.65;;
7239;SDS011;3661;53.288;10.458;2023-02-18T00:39:52;855.80;;;777.10;;
7239;SDS011;3661;53.288;10.458;2023-02-18T00:42:25;877.10;;;798.23;;
7239;SDS011;3661;53.288;10.458;2023-02-18T00:44:58;861.30;;;782.63;;
7239;SDS011;3661;53.288;10.458;2023-02-18T00:47:30;869.20;;;790.70;;
7239;SDS011;3661;53.288;10.458;2023-02-18T00:50:02;870.85;;;792.13;;
7239;SDS011;3661;53.288;10.458;2023-02-18T00:52:34;876.73;;;797.23;;
7239;SDS011;3661;53.288;10.458;2023-02-18T00:55:07;867.20;;;788.22;;
7239;SDS011;3661;53.288;10.458;2023-02-18T00:57:43;870.60;;;792.17;;
7239;SDS011;3661;53.288;10.458;2023-02-18T01:00:15;864.35;;;786.20;;
7239;SDS011;3661;53.288;10.458;2023-02-18T01:02:48;853.55;;;775.22;;
7239;SDS011;3661;53.288;10.458;2023-02-18T01:05:23;872.17;;;793.70;;
7239;SDS011;3661;53.288;10.458;2023-02-18T01:07:55;851.47;;;773.55;;
7239;SDS011;3661;53.288;10.458;2023-02-18T01:10:27;854.13;;;776.03;;
7239;SDS011;3661;53.288;10.458;2023-02-18T01:13:00;858.17;;;779.67;;
7239;SDS011;3661;53.288;10.458;2023-02-18T01:15:33;870.42;;;791.83;;
7239;SDS011;3661;53.288;10.458;2023-02-18T01:18:05;848.25;;;769.95;;
7239;SDS011;3661;53.288;10.458;2023-02-18T01:20:40;851.20;;;773.10;;
7239;SDS011;3661;53.288;10.458;2023-02-18T01:23:13;855.88;;;778.00;;
7239;SDS011;3661;53.288;10.458;2023-02-18T01:25:45;847.95;;;769.83;;
7239;SDS011;3661;53.288;10.458;2023-02-18T01:28:19;848.45;;;770.33;;
7239;SDS011;3661;53.288;10.458;2023-02-18T01:30:54;836.58;;;759.08;;
7239;SDS011;3661;53.288;10.458;2023-02-18T01:33:26;869.60;;;791.38;;
7239;SDS011;3661;53.288;10.458;2023-02-18T01:35:59;830.72;;;753.17;;
7239;SDS011;3661;53.288;10.458;2023-02-18T01:38:31;856.30;;;778.25;;
7239;SDS011;3661;53.288;10.458;2023-02-18T01:41:03;852.25;;;773.88;;
7239;SDS011;3661;53.288;10.458;2023-02-18T01:43:37;862.30;;;783.90;;
7239;SDS011;3661;53.288;10.458;2023-02-18T01:46:14;849.25;;;771.13;;
7239;SDS011;3661;53.288;10.458;2023-02-18T01:48:49;842.13;;;763.80;;
7239;SDS011;3661;53.288;10.458;2023-02-18T01:51:26;849.38;;;772.38;;
7239;SDS011;3661;53.288;10.458;2023-02-18T01:54:03;850.33;;;773.43;;
7239;SDS011;3661;53.288;10.458;2023-02-18T01:56:40;843.25;;;766.58;;
7239;SDS011;3661;53.288;10.458;2023-02-18T01:59:23;847.30;;;770.30;;
7239;SDS011;3661;53.288;10.458;2023-02-18T02:01:58;841.03;;;763.88;;
7239;SDS011;3661;53.288;10.458;2023-02-18T02:04:30;856.22;;;779.03;;
7239;SDS011;3661;53.288;10.458;2023-02-18T02:07:02;843.58;;;766.45;;
7239;SDS011;3661;53.288;10.458;2023-02-18T02:09:35;826.03;;;749.23;;
7239;SDS011;3661;53.288;10.458;2023-02-18T02:12:15;851.05;;;774.55;;
7239;SDS011;3661;53.288;10.458;2023-02-18T02:15:17;842.22;;;765.17;;
7239;SDS011;3661;53.288;10.458;2023-02-18T02:18:02;834.28;;;757.75;;
7239;SDS011;3661;53.288;10.458;2023-02-18T02:20:56;854.97;;;777.70;;
7239;SDS011;3661;53.288;10.458;2023-02-18T02:23:56;846.72;;;769.38;;
7239;SDS011;3661;53.288;10.458;2023-02-18T02:27:13;837.63;;;760.73;;
7239;SDS011;3661;53.288;10.458;2023-02-18T02:29:55;843.78;;;766.70;;
7239;SDS011;3661;53.288;10.458;2023-02-18T02:36:00;841.13;;;764.50;;
7239;SDS011;3661;53.288;10.458;2023-02-18T02:38:39;835.25;;;758.70;;
7239;SDS011;3661;53.288;10.458;2023-02-18T02:41:27;834.08;;;757.17;;
7239;SDS011;3661;53.288;10.458;2023-02-18T02:44:23;830.65;;;754.10;;
7239;SDS011;3661;53.288;10.458;2023-02-18T02:47:04;835.38;;;758.40;;
7239;SDS011;3661;53.288;10.458;2023-02-18T02:49:42;831.70;;;755.00;;
7239;SDS011;3661;53.288;10.458;2023-02-18T02:52:22;823.65;;;747.22;;
7239;SDS011;3661;53.288;10.458;2023-02-18T02:54:58;839.80;;;763.13;;
7239;SDS011;3661;53.288;10.458;2023-02-18T02:57:40;831.53;;;754.70;;
7239;SDS011;3661;53.288;10.458;2023-02-18T03:00:16;844.75;;;767.53;;
7239;SDS011;3661;53.288;10.458;2023-02-18T03:02:57;826.72;;;749.30;;
7239;SDS011;3661;53.288;10.458;2023-02-18T03:05:45;848.42;;;771.67;;
7239;SDS011;3661;53.288;10.458;2023-02-18T03:08:31;833.50;;;756.60;;
7239;SDS011;3661;53.288;10.458;2023-02-18T03:11:11;854.15;;;777.25;;
7239;SDS011;3661;53.288;10.458;2023-02-18T03:13:50;843.58;;;766.80;;
7239;SDS011;3661;53.288;10.458;2023-02-18T03:16:31;833.75;;;756.72;;
7239;SDS011;3661;53.288;10.458;2023-02-18T03:19:11;846.05;;;769.03;;
7239;SDS011;3661;53.288;10.458;2023-02-18T03:21:50;852.63;;;775.42;;
7239;SDS011;3661;53.288;10.458;2023-02-18T03:24:28;843.40;;;766.23;;
7239;SDS011;3661;53.288;10.458;2023-02-18T03:27:04;854.85;;;777.75;;
7239;SDS011;3661;53.288;10.458;2023-02-18T03:29:40;855.50;;;778.00;;
7239;SDS011;3661;53.288;10.458;2023-02-18T03:32:17;846.67;;;769.30;;
7239;SDS011;3661;53.288;10.458;2023-02-18T03:34:53;844.33;;;766.97;;
7239;SDS011;3661;53.288;10.458;2023-02-18T03:37:31;861.00;;;783.20;;
7239;SDS011;3661;53.288;10.458;2023-02-18T03:40:07;861.30;;;783.33;;
7239;SDS011;3661;53.288;10.458;2023-02-18T03:42:41;852.75;;;774.70;;
7239;SDS011;3661;53.288;10.458;2023-02-18T03:45:17;850.38;;;772.67;;
7239;SDS011;3661;53.288;10.458;2023-02-18T03:47:49;845.92;;;768.63;;
7239;SDS011;3661;53.288;10.458;2023-02-18T03:50:21;855.45;;;777.95;;
7239;SDS011;3661;53.288;10.458;2023-02-18T03:52:55;857.90;;;780.47;;
7239;SDS011;3661;53.288;10.458;2023-02-18T03:55:29;856.47;;;779.17;;
7239;SDS011;3661;53.288;10.458;2023-02-18T03:58:01;851.60;;;774.47;;
7239;SDS011;3661;53.288;10.458;2023-02-18T04:00:34;859.33;;;782.13;;
7239;SDS011;3661;53.288;10.458;2023-02-18T04:03:06;846.08;;;769.03;;
7239;SDS011;3661;53.288;10.458;2023-02-18T04:05:38;860.30;;;783.20;;
7239;SDS011;3661;53.288;10.458;2023-02-18T04:08:11;842.03;;;764.67;;
7239;SDS011;3661;53.288;10.458;2023-02-18T04:10:45;859.40;;;781.63;;
7239;SDS011;3661;53.288;10.458;2023-02-18T04:13:18;848.53;;;771.28;;
7239;SDS011;3661;53.288;10.458;2023-02-18T04:15:51;863.70;;;786.15;;
7239;SDS011;3661;53.288;10.458;2023-02-18T04:18:23;852.45;;;774.85;;
7239;SDS011;3661;53.288;10.458;2023-02-18T04:20:57;833.72;;;756.72;;
7239;SDS011;3661;53.288;10.458;2023-02-18T04:23:29;835.63;;;758.65;;
7239;SDS011;3661;53.288;10.458;2023-02-18T04:26:02;854.95;;;777.78;;
7239;SDS011;3661;53.288;10.458;2023-02-18T04:28:34;859.70;;;782.33;;
7239;SDS011;3661;53.288;10.458;2023-02-18T04:31:09;855.83;;;778.38;;
7239;SDS011;3661;53.288;10.458;2023-02-18T04:33:42;834.17;;;757.30;;
7239;SDS011;3661;53.288;10.458;2023-02-18T04:36:15;869.55;;;791.70;;
7239;SDS011;3661;53.288;10.458;2023-02-18T04:38:47;864.80;;;787.13;;
7239;SDS011;3661;53.288;10.458;2023-02-18T04:41:21;851.85;;;774.03;;
7239;SDS011;3661;53.288;10.458;2023-02-18T04:43:53;851.70;;;774.38;;
7239;SDS011;3661;53.288;10.458;2023-02-18T04:46:25;868.25;;;790.50;;
7239;SDS011;3661;53.288;10.458;2023-02-18T04:48:58;859.33;;;781.67;;
7239;SDS011;3661;53.288;10.458;2023-02-18T04:51:32;856.65;;;779.30;;
7239;SDS011;3661;53.288;10.458;2023-02-18T04:54:05;868.67;;;790.60;;
7239;SDS011;3661;53.288;10.458;2023-02-18T04:56:38;860.20;;;781.90;;
7239;SDS011;3661;53.288;10.458;2023-02-18T04:59:13;857.30;;;779.55;;
7239;SDS011;3661;53.288;10.458;2023-02-18T05:01:47;852.75;;;775.15;;
7239;SDS011;3661;53.288;10.458;2023-02-18T05:04:19;861.10;;;782.88;;
7239;SDS011;3661;53.288;10.458;2023-02-18T05:06:52;872.28;;;794.33;;
7239;SDS011;3661;53.288;10.458;2023-02-18T05:09:27;861.55;;;783.80;;
7239;SDS011;3661;53.288;10.458;2023-02-18T05:12:01;867.28;;;789.08;;
7239;SDS011;3661;53.288;10.458;2023-02-18T05:14:33;858.88;;;780.95;;
7239;SDS011;3661;53.288;10.458;2023-02-18T05:17:05;859.35;;;781.75;;
7239;SDS011;3661;53.288;10.458;2023-02-18T05:19:37;884.40;;;806.42;;
7239;SDS011;3661;53.288;10.458;2023-02-18T05:22:10;868.20;;;790.60;;
7239;SDS011;3661;53.288;10.458;2023-02-18T05:24:42;865.67;;;788.17;;
7239;SDS011;3661;53.288;10.458;2023-02-18T05:27:16;862.85;;;785.25;;
7239;SDS011;3661;53.288;10.458;2023-02-18T05:29:48;869.00;;;791.33;;
7239;SDS011;3661;53.288;10.458;2023-02-18T05:32:21;847.60;;;770.15;;
7239;SDS011;3661;53.288;10.458;2023-02-18T05:34:53;867.22;;;789.60;;
7239;SDS011;3661;53.288;10.458;2023-02-18T05:37:25;874.30;;;796.45;;
7239;SDS011;3661;53.288;10.458;2023-02-18T05:39:58;880.13;;;802.15;;
7239;SDS011;3661;53.288;10.458;2023-02-18T05:42:31;868.55;;;790.83;;
7239;SDS011;3661;53.288;10.458;2023-02-18T05:45:03;855.47;;;777.83;;
7239;SDS011;3661;53.288;10.458;2023-02-18T05:47:36;852.47;;;774.83;;
7239;SDS011;3661;53.288;10.458;2023-02-18T05:50:09;855.05;;;777.55;;
7239;SDS011;3661;53.288;10.458;2023-02-18T05:52:41;852.70;;;774.97;;
7239;SDS011;3661;53.288;10.458;2023-02-18T05:55:13;855.13;;;778.05;;
7239;SDS011;3661;53.288;10.458;2023-02-18T05:57:47;863.17;;;786.20;;
7239;SDS011;3661;53.288;10.458;2023-02-18T06:00:19;864.08;;;786.90;;
7239;SDS011;3661;53.288;10.458;2023-02-18T06:02:51;871.58;;;794.15;;
7239;SDS011;3661;53.288;10.458;2023-02-18T06:05:23;858.42;;;781.28;;
7239;SDS011;3661;53.288;10.458;2023-02-18T06:07:56;846.50;;;769.60;;
7239;SDS011;3661;53.288;10.458;2023-02-18T06:10:28;858.85;;;782.03;;
7239;SDS011;3661;53.288;10.458;2023-02-18T06:13:01;858.72;;;781.72;;
7239;SDS011;3661;53.288;10.458;2023-02-18T06:15:33;863.83;;;786.92;;
7239;SDS011;3661;53.288;10.458;2023-02-18T06:18:05;876.85;;;799.70;;
7239;SDS011;3661;53.288;10.458;2023-02-18T06:20:37;858.03;;;781.38;;
7239;SDS011;3661;53.288;10.458;2023-02-18T06:23:10;872.03;;;795.08;;
7239;SDS011;3661;53.288;10.458;2023-02-18T06:25:42;886.42;;;809.45;;
7239;SDS011;3661;53.288;10.458;2023-02-18T06:28:15;868.50;;;791.40;;
7239;SDS011;3661;53.288;10.458;2023-02-18T06:30:48;876.83;;;799.40;;
7239;SDS011;3661;53.288;10.458;2023-02-18T06:33:20;858.58;;;781.17;;
7239;SDS011;3661;53.288;10.458;2023-02-18T06:35:53;855.37;;;778.40;;
7239;SDS011;3661;53.288;10.458;2023-02-18T06:38:26;878.28;;;800.97;;
7239;SDS011;3661;53.288;10.458;2023-02-18T06:40:59;860.22;;;783.13;;
7239;SDS011;3661;53.288;10.458;2023-02-18T06:43:32;874.22;;;796.75;;
7239;SDS011;3661;53.288;10.458;2023-02-18T06:46:04;874.63;;;797.20;;
7239;SDS011;3661;53.288;10.458;2023-02-18T06:48:37;853.78;;;776.85;;
7239;SDS011;3661;53.288;10.458;2023-02-18T06:51:09;849.67;;;772.72;;
7239;SDS011;3661;53.288;10.458;2023-02-18T06:53:41;874.17;;;796.78;;
7239;SDS011;3661;53.288;10.458;2023-02-18T06:56:13;866.80;;;789.63;;
7239;SDS011;3661;53.288;10.458;2023-02-18T06:58:47;860.97;;;784.27;;
7239;SDS011;3661;53.288;10.458;2023-02-18T07:01:19;854.70;;;777.72;;
7239;SDS011;3661;53.288;10.458;2023-02-18T07:03:51;875.13;;;797.65;;
7239;SDS011;3661;53.288;10.458;2023-02-18T07:06:23;856.33;;;779.22;;
7239;SDS011;3661;53.288;10.458;2023-02-18T07:08:55;864.58;;;787.58;;
7239;SDS011;3661;53.288;10.458;2023-02-18T07:11:27;861.17;;;783.90;;
7239;SDS011;3661;53.288;10.458;2023-02-18T07:14:00;848.55;;;771.50;;
7239;SDS011;3661;53.288;10.458;2023-02-18T07:16:33;867.38;;;790.33;;
7239;SDS011;3661;53.288;10.458;2023-02-18T07:19:05;869.28;;;791.92;;
7239;SDS011;3661;53.288;10.458;2023-02-18T07:21:37;856.90;;;779.77;;
7239;SDS011;3661;53.288;10.458;2023-02-18T07:24:09;867.95;;;790.65;;
7239;SDS011;3661;53.288;10.458;2023-02-18T07:26:41;866.25;;;788.45;;
7239;SDS011;3661;53.288;10.458;2023-02-18T07:29:14;847.22;;;769.65;;
7239;SDS011;3661;53.288;10.458;2023-02-18T07:31:46;852.03;;;774.97;;
7239;SDS011;3661;53.288;10.458;2023-02-18T07:34:18;857.28;;;779.88;;
7239;SDS011;3661;53.288;10.458;2023-02-18T07:36:51;853.97;;;776.57;;
7239;SDS011;3661;53.288;10.458;2023-02-18T07:39:23;859.08;;;781.88;;
7239;SDS011;3661;53.288;10.458;2023-02-18T07:41:55;879.63;;;802.22;;
7239;SDS011;3661;53.288;10.458;2023-02-18T07:44:28;871.63;;;793.67;;
7239;SDS011;3661;53.288;10.458;2023-02-18T07:47:00;867.78;;;790.22;;
7239;SDS011;3661;53.288;10.458;2023-02-18T07:49:34;874.95;;;797.40;;
7239;SDS011;3661;53.288;10.458;2023-02-18T07:52:06;870.20;;;792.90;;
7239;SDS011;3661;53.288;10.458;2023-02-18T07:54:38;879.42;;;801.85;;
7239;SDS011;3661;53.288;10.458;2023-02-18T07:57:10;881.67;;;804.38;;
7239;SDS011;3661;53.288;10.458;2023-02-18T07:59:44;865.80;;;788.33;;
7239;SDS011;3661;53.288;10.458;2023-02-18T08:02:16;882.90;;;805.55;;
7239;SDS011;3661;53.288;10.458;2023-02-18T08:04:50;873.13;;;795.78;;
7239;SDS011;3661;53.288;10.458;2023-02-18T08:07:22;874.85;;;797.70;;
7239;SDS011;3661;53.288;10.458;2023-02-18T08:09:54;866.53;;;789.22;;
7239;SDS011;3661;53.288;10.458;2023-02-18T08:12:26;874.08;;;797.00;;
7239;SDS011;3661;53.288;10.458;2023-02-18T08:14:59;877.28;;;800.33;;
7239;SDS011;3661;53.288;10.458;2023-02-18T08:17:31;877.42;;;799.45;;
7239;SDS011;3661;53.288;10.458;2023-02-18T08:20:04;863.85;;;786.47;;
7239;SDS011;3661;53.288;10.458;2023-02-18T08:22:37;875.85;;;798.40;;
7239;SDS011;3661;53.288;10.458;2023-02-18T08:25:09;870.65;;;793.45;;
7239;SDS011;3661;53.288;10.458;2023-02-18T08:27:41;868.00;;;790.88;;
7239;SDS011;3661;53.288;10.458;2023-02-18T08:30:15;860.80;;;783.45;;
7239;SDS011;3661;53.288;10.458;2023-02-18T08:32:47;884.17;;;806.75;;
7239;SDS011;3661;53.288;10.458;2023-02-18T08:35:19;865.58;;;788.33;;
7239;SDS011;3661;53.288;10.458;2023-02-18T08:37:51;863.95;;;786.45;;
7239;SDS011;3661;53.288;10.458;2023-02-18T08:40:23;895.67;;;817.55;;
7239;SDS011;3661;53.288;10.458;2023-02-18T08:42:55;888.90;;;810.58;;
7239;SDS011;3661;53.288;10.458;2023-02-18T08:45:28;869.53;;;791.45;;
7239;SDS011;3661;53.288;10.458;2023-02-18T08:48:00;864.50;;;786.70;;
7239;SDS011;3661;53.288;10.458;2023-02-18T08:50:33;898.15;;;820.00;;
7239;SDS011;3661;53.288;10.458;2023-02-18T08:53:05;877.08;;;799.03;;
7239;SDS011;3661;53.288;10.458;2023-02-18T08:55:38;895.08;;;816.45;;
7239;SDS011;3661;53.288;10.458;2023-02-18T08:58:11;891.72;;;813.33;;
7239;SDS011;3661;53.288;10.458;2023-02-18T09:00:45;892.10;;;813.53;;
7239;SDS011;3661;53.288;10.458;2023-02-18T09:03:17;878.05;;;800.03;;
7239;SDS011;3661;53.288;10.458;2023-02-18T09:05:49;887.08;;;808.58;;
7239;SDS011;3661;53.288;10.458;2023-02-18T09:08:21;909.72;;;830.95;;
7239;SDS011;3661;53.288;10.458;2023-02-18T09:10:54;888.20;;;809.28;;
7239;SDS011;3661;53.288;10.458;2023-02-18T09:13:27;888.00;;;809.17;;
7239;SDS011;3661;53.288;10.458;2023-02-18T09:16:01;913.22;;;834.58;;
7239;SDS011;3661;53.288;10.458;2023-02-18T09:18:34;887.20;;;808.20;;
7239;SDS011;3661;53.288;10.458;2023-02-18T09:21:07;895.35;;;816.95;;
7239;SDS011;3661;53.288;10.458;2023-02-18T09:23:41;891.47;;;812.92;;
7239;SDS011;3661;53.288;10.458;2023-02-18T09:26:14;902.63;;;823.28;;
7239;SDS011;3661;53.288;10.458;2023-02-18T09:28:47;895.90;;;816.90;;
7239;SDS011;3661;53.288;10.458;2023-02-18T09:31:22;889.10;;;810.37;;
7239;SDS011;3661;53.288;10.458;2023-02-18T09:33:56;909.20;;;830.17;;
7239;SDS011;3661;53.288;10.458;2023-02-18T09:36:29;896.57;;;818.20;;
7239;SDS011;3661;53.288;10.458;2023-02-18T09:39:02;916.70;;;838.38;;
7239;SDS011;3661;53.288;10.458;2023-02-18T09:41:36;889.97;;;811.40;;
7239;SDS011;3661;53.288;10.458;2023-02-18T09:44:12;902.17;;;824.05;;
7239;SDS011;3661;53.288;10.458;2023-02-18T09:46:49;899.30;;;820.57;;
7239;SDS011;3661;53.288;10.458;2023-02-18T09:49:25;900.78;;;822.25;;
7239;SDS011;3661;53.288;10.458;2023-02-18T09:52:04;900.83;;;822.13;;
7239;SDS011;3661;53.288;10.458;2023-02-18T09:54:41;905.25;;;826.55;;
7239;SDS011;3661;53.288;10.458;2023-02-18T09:57:14;900.00;;;821.25;;
7239;SDS011;3661;53.288;10.458;2023-02-18T09:59:55;898.33;;;818.85;;
7239;SDS011;3661;53.288;10.458;2023-02-18T10:02:31;906.22;;;827.17;;
7239;SDS011;3661;53.288;10.458;2023-02-18T10:05:05;901.25;;;821.90;;
7239;SDS011;3661;53.288;10.458;2023-02-18T10:07:43;907.30;;;827.60;;
7239;SDS011;3661;53.288;10.458;2023-02-18T10:10:20;928.25;;;848.17;;
7239;SDS011;3661;53.288;10.458;2023-02-18T10:12:56;915.38;;;835.92;;
7239;SDS011;3661;53.288;10.458;2023-02-18T10:15:29;911.03;;;831.50;;
7239;SDS011;3661;53.288;10.458;2023-02-18T10:18:03;899.50;;;820.47;;
7239;SDS011;3661;53.288;10.458;2023-02-18T10:20:41;899.42;;;820.42;;
7239;SDS011;3661;53.288;10.458;2023-02-18T10:23:14;913.47;;;834.63;;
7239;SDS011;3661;53.288;10.458;2023-02-18T10:25:46;914.28;;;835.30;;
7239;SDS011;3661;53.288;10.458;2023-02-18T10:28:20;926.60;;;847.20;;
7239;SDS011;3661;53.288;10.458;2023-02-18T10:30:56;925.72;;;846.65;;
7239;SDS011;3661;53.288;10.458;2023-02-18T10:33:33;923.50;;;844.42;;
7239;SDS011;3661;53.288;10.458;2023-02-18T10:36:11;928.50;;;849.08;;
7239;SDS011;3661;53.288;10.458;2023-02-18T10:39:22;920.83;;;841.72;;
7239;SDS011;3661;53.288;10.458;2023-02-18T10:42:07;937.45;;;858.20;;
7239;SDS011;3661;53.288;10.458;2023-02-18T10:44:50;928.55;;;849.53;;
7239;SDS011;3661;53.288;10.458;2023-02-18T10:47:34;936.05;;;856.80;;
7239;SDS011;3661;53.288;10.458;2023-02-18T10:50:11;934.28;;;855.47;;
7239;SDS011;3661;53.288;10.458;2023-02-18T10:52:48;932.45;;;853.60;;
7239;SDS011;3661;53.288;10.458;2023-02-18T10:55:32;931.90;;;852.67;;
7239;SDS011;3661;53.288;10.458;2023-02-18T10:58:22;923.70;;;844.80;;
7239;SDS011;3661;53.288;10.458;2023-02-18T11:01:00;933.05;;;854.28;;
7239;SDS011;3661;53.288;10.458;2023-02-18T11:03:38;958.00;;;878.80;;
7239;SDS011;3661;53.288;10.458;2023-02-18T11:06:18;960.10;;;880.83;;
7239;SDS011;3661;53.288;10.458;2023-02-18T11:09:02;968.67;;;889.05;;
7239;SDS011;3661;53.288;10.458;2023-02-18T11:11:35;949.97;;;870.67;;
7239;SDS011;3661;53.288;10.458;2023-02-18T11:14:09;946.85;;;867.13;;
7239;SDS011;3661;53.288;10.458;2023-02-18T11:17:09;959.17;;;879.38;;
7239;SDS011;3661;53.288;10.458;2023-02-18T11:19:52;964.55;;;884.35;;
7239;SDS011;3661;53.288;10.458;2023-02-18T11:22:29;962.85;;;882.67;;
7239;SDS011;3661;53.288;10.458;2023-02-18T11:25:17;969.17;;;888.88;;
7239;SDS011;3661;53.288;10.458;2023-02-18T11:27:51;979.15;;;898.53;;
7239;SDS011;3661;53.288;10.458;2023-02-18T11:30:29;982.17;;;901.83;;
7239;SDS011;3661;53.288;10.458;2023-02-18T11:33:05;989.03;;;908.40;;
7239;SDS011;3661;53.288;10.458;2023-02-18T11:35:39;995.57;;;914.67;;
7239;SDS011;3661;53.288;10.458;2023-02-18T11:38:22;1027.40;;;946.20;;
7239;SDS011;3661;53.288;10.458;2023-02-18T11:40:58;1010.05;;;929.30;;
7239;SDS011;3661;53.288;10.458;2023-02-18T11:43:34;1022.45;;;941.53;;
7239;SDS011;3661;53.288;10.458;2023-02-18T11:46:07;1050.55;;;968.70;;
7239;SDS011;3661;53.288;10.458;2023-02-18T11:48:40;1124.95;;;999.90;;
7239;SDS011;3661;53.288;10.458;2023-02-18T11:51:16;1151.18;;;999.90;;
7239;SDS011;3661;53.288;10.458;2023-02-18T11:53:56;1184.22;;;999.90;;
7239;SDS011;3661;53.288;10.458;2023-02-18T11:56:30;1156.10;;;999.90;;
7239;SDS011;3661;53.288;10.458;2023-02-18T11:59:03;1168.18;;;999.90;;
7239;SDS011;3661;53.288;10.458;2023-02-18T12:01:38;1220.65;;;999.90;;
7239;SDS011;3661;53.288;10.458;2023-02-18T12:04:16;1178.20;;;999.90;;
7239;SDS011;3661;53.288;10.458;2023-02-18T12:06:51;1162.00;;;999.90;;
7239;SDS011;3661;53.288;10.458;2023-02-18T12:09:28;1267.57;;;999.90;;
7239;SDS011;3661;53.288;10.458;2023-02-18T12:12:06;1206.57;;;999.90;;
7239;SDS011;3661;53.288;10.458;2023-02-18T12:14:43;1248.25;;;999.90;;
7239;SDS011;3661;53.288;10.458;2023-02-18T12:17:24;1272.72;;;999.90;;
7239;SDS011;3661;53.288;10.458;2023-02-18T12:23:12;1195.75;;;999.90;;
7239;SDS011;3661;53.288;10.458;2023-02-18T12:25:55;1258.18;;;999.90;;
7239;SDS011;3661;53.288;10.458;2023-02-18T12:28:42;1291.80;;;999.90;;
7239;SDS011;3661;53.288;10.458;2023-02-18T12:31:32;1288.50;;;999.90;;
7239;SDS011;3661;53.288;10.458;2023-02-18T12:34:19;1279.63;;;999.90;;
7239;SDS011;3661;53.288;10.458;2023-02-18T12:37:04;1317.87;;;999.90;;
7239;SDS011;3661;53.288;10.458;2023-02-18T12:39:56;1307.85;;;999.90;;
7239;SDS011;3661;53.288;10.458;2023-02-18T12:42:45;1229.00;;;999.90;;
7239;SDS011;3661;53.288;10.458;2023-02-18T12:45:34;1291.97;;;999.90;;
7239;SDS011;3661;53.288;10.458;2023-02-18T12:48:25;1234.07;;;999.90;;
7239;SDS011;3661;53.288;10.458;2023-02-18T12:51:12;1248.68;;;999.90;;
7239;SDS011;3661;53.288;10.458;2023-02-18T12:53:58;1287.13;;;999.90;;
7239;SDS011;3661;53.288;10.458;2023-02-18T12:56:51;1274.38;;;999.90;;
7239;SDS011;3661;53.288;10.458;2023-02-18T12:59:39;1264.63;;;999.90;;
7239;SDS011;3661;53.288;10.458;2023-02-18T13:02:38;1341.15;;;999.90;;
7239;SDS011;3661;53.288;10.458;2023-02-18T13:05:37;1288.35;;;999.90;;
7239;SDS011;3661;53.288;10.458;2023-02-18T13:08:21;1296.90;;;999.90;;
7239;SDS011;3661;53.288;10.458;2023-02-18T13:11:09;1318.43;;;999.90;;
7239;SDS011;3661;53.288;10.458;2023-02-18T13:13:56;1304.20;;;999.90;;
7239;SDS011;3661;53.288;10.458;2023-02-18T13:16:34;1283.68;;;999.90;;
7239;SDS011;3661;53.288;10.458;2023-02-18T13:19:12;1269.93;;;999.90;;
7239;SDS011;3661;53.288;10.458;2023-02-18T13:21:49;1308.25;;;999.90;;
7239;SDS011;3661;53.288;10.458;2023-02-18T13:24:27;1317.15;;;999.90;;
7239;SDS011;3661;53.288;10.458;2023-02-18T13:27:05;1297.45;;;999.90;;
7239;SDS011;3661;53.288;10.458;2023-02-18T13:29:46;1272.55;;;999.90;;
7239;SDS011;3661;53.288;10.458;2023-02-18T13:32:25;1345.57;;;999.90;;
7239;SDS011;3661;53.288;10.458;2023-02-18T13:35:05;1346.18;;;999.90;;
7239;SDS011;3661;53.288;10.458;2023-02-18T13:37:54;1346.45;;;999.90;;
7239;SDS011;3661;53.288;10.458;2023-02-18T13:40:33;1334.20;;;999.90;;
7239;SDS011;3661;53.288;10.458;2023-02-18T13:43:16;1329.40;;;999.90;;
7239;SDS011;3661;53.288;10.458;2023-02-18T13:48:45;1365.33;;;999.90;;
7239;SDS011;3661;53.288;10.458;2023-02-18T13:51:26;1380.75;;;999.90;;
7239;SDS011;3661;53.288;10.458;2023-02-18T13:54:03;1366.40;;;999.90;;
7239;SDS011;3661;53.288;10.458;2023-02-18T13:56:49;1352.70;;;999.90;;
7239;SDS011;3661;53.288;10.458;2023-02-18T13:59:24;1341.65;;;999.90;;
7239;SDS011;3661;53.288;10.458;2023-02-18T14:08:03;1351.45;;;999.90;;
7239;SDS011;3661;53.288;10.458;2023-02-18T14:10:41;1349.25;;;999.90;;
7239;SDS011;3661;53.288;10.458;2023-02-18T14:13:37;1359.80;;;999.90;;
7239;SDS011;3661;53.288;10.458;2023-02-18T14:16:10;1361.38;;;999.90;;
7239;SDS011;3661;53.288;10.458;2023-02-18T14:18:58;1375.63;;;999.90;;
7239;SDS011;3661;53.288;10.458;2023-02-18T14:21:37;1383.20;;;999.90;;
7239;SDS011;3661;53.288;10.458;2023-02-18T14:24:11;1355.63;;;999.90;;
7239;SDS011;3661;53.288;10.458;2023-02-18T14:26:44;1361.47;;;999.90;;
7239;SDS011;3661;53.288;10.458;2023-02-18T14:29:21;1375.63;;;999.90;;
7239;SDS011;3661;53.288;10.458;2023-02-18T14:31:59;1332.25;;;999.90;;
7239;SDS011;3661;53.288;10.458;2023-02-18T14:37:42;1372.70;;;999.90;;
7239;SDS011;3661;53.288;10.458;2023-02-18T14:40:32;1350.07;;;999.90;;
7239;SDS011;3661;53.288;10.458;2023-02-18T14:43:25;1356.15;;;999.90;;
7239;SDS011;3661;53.288;10.458;2023-02-18T14:46:18;1378.95;;;999.90;;
7239;SDS011;3661;53.288;10.458;2023-02-18T14:49:07;1352.28;;;999.90;;
7239;SDS011;3661;53.288;10.458;2023-02-18T14:51:56;1365.13;;;999.90;;
7239;SDS011;3661;53.288;10.458;2023-02-18T14:54:31;1363.20;;;999.90;;
7239;SDS011;3661;53.288;10.458;2023-02-18T14:57:04;1373.30;;;999.90;;
7239;SDS011;3661;53.288;10.458;2023-02-18T14:59:40;1340.47;;;999.90;;
7239;SDS011;3661;53.288;10.458;2023-02-18T15:02:17;1330.15;;;999.90;;
7239;SDS011;3661;53.288;10.458;2023-02-18T15:04:50;1350.97;;;999.90;;
7239;SDS011;3661;53.288;10.458;2023-02-18T15:07:22;1351.57;;;999.90;;
7239;SDS011;3661;53.288;10.458;2023-02-18T15:09:56;1339.72;;;999.90;;
7239;SDS011;3661;53.288;10.458;2023-02-18T15:12:29;1329.30;;;999.90;;
7239;SDS011;3661;53.288;10.458;2023-02-18T15:15:02;1350.30;;;999.90;;
7239;SDS011;3661;53.288;10.458;2023-02-18T15:17:36;1347.15;;;999.90;;